sensor_id;sensor_type;location;lat;lon;timestamp;P1;durP1;ratioP1;P2;durP2;ratioP2
28447;SDS011;15675;52.870;-1.416;2022-10-22T00:01:06;15.13;;;2.78;;
28447;SDS011;15675;52.870;-1.416;2022-10-22T00:03:32;16.23;;;3.08;;
28447;SDS011;15675;52.870;-1.416;2022-10-22T00:05:58;10.75;;;2.53;;
28447;SDS011;15675;52.870;-1.416;2022-10-22T00:08:23;18.50;;;2.53;;
28447;SDS011;15675;52.870;-1.416;2022-10-22T00:10:48;16.88;;;2.45;;
28447;SDS011;15675;52.870;-1.416;2022-10-22T00:13:14;20.20;;;2.60;;
28447;SDS011;15675;52.870;-1.416;2022-10-22T00:15:40;23.63;;;2.90;;
28447;SDS011;15675;52.870;-1.416;2022-10-22T00:18:05;14.18;;;3.13;;
28447;SDS011;15675;52.870;-1.416;2022-10-22T00:20:31;19.08;;;2.72;;
28447;SDS011;15675;52.870;-1.416;2022-10-22T00:22:56;17.25;;;2.25;;
28447;SDS011;15675;52.870;-1.416;2022-10-22T00:25:22;13.25;;;2.10;;
28447;SDS011;15675;52.870;-1.416;2022-10-22T00:27:47;14.32;;;2.50;;
28447;SDS011;15675;52.870;-1.416;2022-10-22T00:30:13;19.77;;;2.20;;
28447;SDS011;15675;52.870;-1.416;2022-10-22T00:32:38;19.17;;;2.67;;
28447;SDS011;15675;52.870;-1.416;2022-10-22T00:35:04;15.35;;;2.88;;
28447;SDS011;15675;52.870;-1.416;2022-10-22T00:37:30;19.27;;;3.30;;
28447;SDS011;15675;52.870;-1.416;2022-10-22T00:39:55;15.65;;;2.53;;
28447;SDS011;15675;52.870;-1.416;2022-10-22T00:42:23;16.10;;;2.95;;
28447;SDS011;15675;52.870;-1.416;2022-10-22T00:45:09;14.73;;;2.90;;
28447;SDS011;15675;52.870;-1.416;2022-10-22T00:50:29;18.55;;;3.10;;
28447;SDS011;15675;52.870;-1.416;2022-10-22T00:52:58;11.13;;;2.28;;
28447;SDS011;15675;52.870;-1.416;2022-10-22T00:55:25;16.38;;;2.55;;
28447;SDS011;15675;52.870;-1.416;2022-10-22T00:57:53;20.00;;;2.90;;
28447;SDS011;15675;52.870;-1.416;2022-10-22T01:00:21;15.00;;;2.78;;
28447;SDS011;15675;52.870;-1.416;2022-10-22T01:02:48;19.35;;;2.95;;
28447;SDS011;15675;52.870;-1.416;2022-10-22T01:05:15;18.67;;;3.05;;
28447;SDS011;15675;52.870;-1.416;2022-10-22T01:07:43;14.05;;;2.53;;
28447;SDS011;15675;52.870;-1.416;2022-10-22T01:15:23;22.42;;;2.40;;
28447;SDS011;15675;52.870;-1.416;2022-10-22T01:24:09;14.20;;;3.17;;
28447;SDS011;15675;52.870;-1.416;2022-10-22T01:26:55;19.35;;;2.83;;
28447;SDS011;15675;52.870;-1.416;2022-10-22T01:29:41;17.65;;;2.58;;
28447;SDS011;15675;52.870;-1.416;2022-10-22T01:32:13;24.30;;;2.67;;
28447;SDS011;15675;52.870;-1.416;2022-10-22T01:34:42;13.02;;;2.47;;
28447;SDS011;15675;52.870;-1.416;2022-10-22T01:37:11;14.38;;;2.63;;
28447;SDS011;15675;52.870;-1.416;2022-10-22T01:39:38;12.85;;;2.85;;
28447;SDS011;15675;52.870;-1.416;2022-10-22T01:42:07;9.35;;;2.28;;
28447;SDS011;15675;52.870;-1.416;2022-10-22T01:44:33;19.95;;;2.83;;
28447;SDS011;15675;52.870;-1.416;2022-10-22T02:01:07;12.55;;;2.67;;
28447;SDS011;15675;52.870;-1.416;2022-10-22T02:03:44;14.30;;;2.78;;
28447;SDS011;15675;52.870;-1.416;2022-10-22T02:06:26;20.55;;;3.28;;
28447;SDS011;15675;52.870;-1.416;2022-10-22T02:08:53;14.27;;;2.67;;
28447;SDS011;15675;52.870;-1.416;2022-10-22T02:11:20;19.50;;;3.83;;
28447;SDS011;15675;52.870;-1.416;2022-10-22T02:13:47;19.90;;;3.28;;
28447;SDS011;15675;52.870;-1.416;2022-10-22T02:16:21;17.17;;;3.40;;
28447;SDS011;15675;52.870;-1.416;2022-10-22T02:18:51;16.05;;;2.63;;
28447;SDS011;15675;52.870;-1.416;2022-10-22T02:21:20;15.38;;;2.75;;
28447;SDS011;15675;52.870;-1.416;2022-10-22T02:23:46;19.15;;;2.55;;
28447;SDS011;15675;52.870;-1.416;2022-10-22T02:26:18;10.88;;;2.22;;
28447;SDS011;15675;52.870;-1.416;2022-10-22T02:29:07;14.10;;;2.63;;
28447;SDS011;15675;52.870;-1.416;2022-10-22T02:31:38;17.73;;;2.80;;
28447;SDS011;15675;52.870;-1.416;2022-10-22T02:34:08;19.83;;;2.95;;
28447;SDS011;15675;52.870;-1.416;2022-10-22T02:36:40;14.38;;;3.08;;
28447;SDS011;15675;52.870;-1.416;2022-10-22T02:39:08;14.07;;;2.13;;
28447;SDS011;15675;52.870;-1.416;2022-10-22T02:41:35;15.63;;;2.88;;
28447;SDS011;15675;52.870;-1.416;2022-10-22T02:44:05;15.43;;;3.42;;
28447;SDS011;15675;52.870;-1.416;2022-10-22T02:49:00;15.65;;;3.63;;
28447;SDS011;15675;52.870;-1.416;2022-10-22T02:51:26;21.13;;;2.90;;
28447;SDS011;15675;52.870;-1.416;2022-10-22T02:53:52;14.20;;;3.10;;
28447;SDS011;15675;52.870;-1.416;2022-10-22T02:56:17;26.40;;;2.97;;
28447;SDS011;15675;52.870;-1.416;2022-10-22T02:58:43;11.55;;;2.08;;
28447;SDS011;15675;52.870;-1.416;2022-10-22T03:01:08;19.92;;;3.78;;
28447;SDS011;15675;52.870;-1.416;2022-10-22T03:03:34;17.00;;;3.45;;
28447;SDS011;15675;52.870;-1.416;2022-10-22T03:05:59;17.92;;;2.60;;
28447;SDS011;15675;52.870;-1.416;2022-10-22T03:08:25;13.27;;;2.00;;
28447;SDS011;15675;52.870;-1.416;2022-10-22T03:10:50;9.30;;;2.00;;
28447;SDS011;15675;52.870;-1.416;2022-10-22T03:13:16;11.68;;;2.50;;
28447;SDS011;15675;52.870;-1.416;2022-10-22T03:15:41;11.15;;;1.95;;
28447;SDS011;15675;52.870;-1.416;2022-10-22T03:18:07;18.48;;;2.47;;
28447;SDS011;15675;52.870;-1.416;2022-10-22T03:20:32;12.30;;;2.22;;
28447;SDS011;15675;52.870;-1.416;2022-10-22T03:22:58;22.38;;;2.63;;
28447;SDS011;15675;52.870;-1.416;2022-10-22T03:25:25;13.35;;;2.17;;
28447;SDS011;15675;52.870;-1.416;2022-10-22T03:27:52;10.13;;;1.73;;
28447;SDS011;15675;52.870;-1.416;2022-10-22T03:30:20;13.90;;;2.97;;
28447;SDS011;15675;52.870;-1.416;2022-10-22T03:32:45;10.63;;;2.65;;
28447;SDS011;15675;52.870;-1.416;2022-10-22T03:35:11;17.75;;;2.92;;
28447;SDS011;15675;52.870;-1.416;2022-10-22T03:37:36;12.70;;;2.15;;
28447;SDS011;15675;52.870;-1.416;2022-10-22T03:40:03;10.82;;;2.35;;
28447;SDS011;15675;52.870;-1.416;2022-10-22T03:42:31;11.93;;;2.25;;
28447;SDS011;15675;52.870;-1.416;2022-10-22T03:44:56;17.90;;;2.70;;
28447;SDS011;15675;52.870;-1.416;2022-10-22T03:47:22;12.75;;;2.20;;
28447;SDS011;15675;52.870;-1.416;2022-10-22T03:49:50;9.70;;;2.13;;
28447;SDS011;15675;52.870;-1.416;2022-10-22T03:52:16;12.70;;;2.40;;
28447;SDS011;15675;52.870;-1.416;2022-10-22T03:54:42;9.38;;;1.55;;
28447;SDS011;15675;52.870;-1.416;2022-10-22T03:57:08;8.05;;;1.55;;
28447;SDS011;15675;52.870;-1.416;2022-10-22T03:59:35;8.73;;;1.55;;
28447;SDS011;15675;52.870;-1.416;2022-10-22T04:02:01;10.45;;;2.03;;
28447;SDS011;15675;52.870;-1.416;2022-10-22T04:04:27;10.02;;;1.63;;
28447;SDS011;15675;52.870;-1.416;2022-10-22T04:06:53;10.95;;;1.80;;
28447;SDS011;15675;52.870;-1.416;2022-10-22T04:09:19;9.52;;;1.90;;
28447;SDS011;15675;52.870;-1.416;2022-10-22T04:11:44;8.68;;;1.27;;
28447;SDS011;15675;52.870;-1.416;2022-10-22T04:14:09;5.95;;;1.30;;
28447;SDS011;15675;52.870;-1.416;2022-10-22T04:16:37;6.68;;;1.55;;
28447;SDS011;15675;52.870;-1.416;2022-10-22T04:19:04;9.90;;;1.83;;
28447;SDS011;15675;52.870;-1.416;2022-10-22T04:21:29;9.35;;;1.40;;
28447;SDS011;15675;52.870;-1.416;2022-10-22T04:23:55;8.55;;;1.67;;
28447;SDS011;15675;52.870;-1.416;2022-10-22T04:26:20;9.20;;;1.95;;
28447;SDS011;15675;52.870;-1.416;2022-10-22T04:28:46;8.50;;;1.30;;
28447;SDS011;15675;52.870;-1.416;2022-10-22T04:31:14;3.55;;;1.30;;
28447;SDS011;15675;52.870;-1.416;2022-10-22T04:33:41;13.93;;;1.30;;
28447;SDS011;15675;52.870;-1.416;2022-10-22T04:36:11;10.02;;;1.48;;
28447;SDS011;15675;52.870;-1.416;2022-10-22T04:38:38;6.75;;;1.10;;
28447;SDS011;15675;52.870;-1.416;2022-10-22T04:41:08;10.02;;;1.23;;
28447;SDS011;15675;52.870;-1.416;2022-10-22T04:43:34;6.43;;;1.13;;
28447;SDS011;15675;52.870;-1.416;2022-10-22T04:45:59;3.85;;;1.20;;
28447;SDS011;15675;52.870;-1.416;2022-10-22T04:48:25;9.73;;;1.50;;
28447;SDS011;15675;52.870;-1.416;2022-10-22T04:50:50;7.63;;;1.48;;
28447;SDS011;15675;52.870;-1.416;2022-10-22T04:53:16;11.35;;;1.40;;
28447;SDS011;15675;52.870;-1.416;2022-10-22T04:55:41;6.45;;;1.38;;
28447;SDS011;15675;52.870;-1.416;2022-10-22T04:58:07;5.18;;;1.13;;
28447;SDS011;15675;52.870;-1.416;2022-10-22T05:00:32;5.85;;;1.35;;
28447;SDS011;15675;52.870;-1.416;2022-10-22T05:02:58;6.13;;;1.48;;
28447;SDS011;15675;52.870;-1.416;2022-10-22T05:05:23;9.43;;;1.38;;
28447;SDS011;15675;52.870;-1.416;2022-10-22T05:07:49;7.28;;;1.20;;
28447;SDS011;15675;52.870;-1.416;2022-10-22T05:10:15;7.57;;;1.10;;
28447;SDS011;15675;52.870;-1.416;2022-10-22T05:12:41;13.82;;;1.10;;
28447;SDS011;15675;52.870;-1.416;2022-10-22T05:15:07;10.10;;;1.63;;
28447;SDS011;15675;52.870;-1.416;2022-10-22T05:17:36;8.27;;;1.38;;
28447;SDS011;15675;52.870;-1.416;2022-10-22T05:20:02;11.75;;;2.25;;
28447;SDS011;15675;52.870;-1.416;2022-10-22T05:22:29;9.05;;;1.35;;
28447;SDS011;15675;52.870;-1.416;2022-10-22T05:24:54;11.05;;;1.60;;
28447;SDS011;15675;52.870;-1.416;2022-10-22T05:27:20;10.95;;;1.52;;
28447;SDS011;15675;52.870;-1.416;2022-10-22T05:29:46;7.88;;;1.20;;
28447;SDS011;15675;52.870;-1.416;2022-10-22T05:32:11;12.50;;;1.70;;
28447;SDS011;15675;52.870;-1.416;2022-10-22T05:34:36;14.35;;;1.60;;
28447;SDS011;15675;52.870;-1.416;2022-10-22T05:37:02;9.30;;;1.40;;
28447;SDS011;15675;52.870;-1.416;2022-10-22T05:39:28;7.45;;;1.20;;
28447;SDS011;15675;52.870;-1.416;2022-10-22T05:41:53;7.55;;;1.77;;
28447;SDS011;15675;52.870;-1.416;2022-10-22T05:44:19;11.10;;;1.63;;
28447;SDS011;15675;52.870;-1.416;2022-10-22T05:46:44;9.35;;;1.42;;
28447;SDS011;15675;52.870;-1.416;2022-10-22T05:49:11;8.60;;;2.30;;
28447;SDS011;15675;52.870;-1.416;2022-10-22T05:51:38;4.30;;;1.10;;
28447;SDS011;15675;52.870;-1.416;2022-10-22T05:54:05;11.80;;;1.30;;
28447;SDS011;15675;52.870;-1.416;2022-10-22T05:56:32;12.25;;;1.45;;
28447;SDS011;15675;52.870;-1.416;2022-10-22T05:58:58;15.80;;;1.60;;
28447;SDS011;15675;52.870;-1.416;2022-10-22T06:01:29;12.95;;;1.70;;
28447;SDS011;15675;52.870;-1.416;2022-10-22T06:03:58;15.65;;;1.90;;
28447;SDS011;15675;52.870;-1.416;2022-10-22T06:11:51;13.57;;;2.38;;
28447;SDS011;15675;52.870;-1.416;2022-10-22T06:14:17;15.70;;;1.92;;
28447;SDS011;15675;52.870;-1.416;2022-10-22T06:16:43;18.25;;;1.75;;
28447;SDS011;15675;52.870;-1.416;2022-10-22T06:19:10;12.90;;;2.30;;
28447;SDS011;15675;52.870;-1.416;2022-10-22T06:21:36;16.73;;;1.58;;
28447;SDS011;15675;52.870;-1.416;2022-10-22T06:24:02;17.95;;;2.15;;
28447;SDS011;15675;52.870;-1.416;2022-10-22T06:26:29;14.52;;;1.55;;
28447;SDS011;15675;52.870;-1.416;2022-10-22T06:28:55;17.88;;;1.50;;
28447;SDS011;15675;52.870;-1.416;2022-10-22T06:31:22;14.52;;;1.83;;
28447;SDS011;15675;52.870;-1.416;2022-10-22T06:33:48;11.60;;;2.33;;
28447;SDS011;15675;52.870;-1.416;2022-10-22T06:36:16;8.30;;;1.25;;
28447;SDS011;15675;52.870;-1.416;2022-10-22T06:38:44;12.98;;;1.80;;
28447;SDS011;15675;52.870;-1.416;2022-10-22T06:41:11;13.07;;;2.20;;
28447;SDS011;15675;52.870;-1.416;2022-10-22T06:43:38;11.82;;;2.05;;
28447;SDS011;15675;52.870;-1.416;2022-10-22T06:46:06;9.57;;;1.80;;
28447;SDS011;15675;52.870;-1.416;2022-10-22T06:48:34;10.23;;;1.77;;
28447;SDS011;15675;52.870;-1.416;2022-10-22T06:51:11;10.02;;;1.83;;
28447;SDS011;15675;52.870;-1.416;2022-10-22T06:53:37;8.20;;;1.33;;
28447;SDS011;15675;52.870;-1.416;2022-10-22T06:56:07;14.63;;;2.05;;
28447;SDS011;15675;52.870;-1.416;2022-10-22T06:58:35;9.98;;;1.73;;
28447;SDS011;15675;52.870;-1.416;2022-10-22T07:01:02;11.43;;;2.20;;
28447;SDS011;15675;52.870;-1.416;2022-10-22T07:03:32;9.70;;;1.63;;
28447;SDS011;15675;52.870;-1.416;2022-10-22T07:05:58;15.43;;;2.20;;
28447;SDS011;15675;52.870;-1.416;2022-10-22T07:08:28;17.17;;;2.25;;
28447;SDS011;15675;52.870;-1.416;2022-10-22T07:10:54;12.90;;;1.80;;
28447;SDS011;15675;52.870;-1.416;2022-10-22T07:13:20;8.88;;;1.60;;
28447;SDS011;15675;52.870;-1.416;2022-10-22T07:15:53;14.90;;;2.17;;
28447;SDS011;15675;52.870;-1.416;2022-10-22T07:18:19;9.55;;;2.22;;
28447;SDS011;15675;52.870;-1.416;2022-10-22T07:20:45;7.47;;;1.67;;
28447;SDS011;15675;52.870;-1.416;2022-10-22T07:23:12;11.00;;;2.25;;
28447;SDS011;15675;52.870;-1.416;2022-10-22T07:25:37;15.35;;;2.10;;
28447;SDS011;15675;52.870;-1.416;2022-10-22T07:28:03;17.00;;;2.20;;
28447;SDS011;15675;52.870;-1.416;2022-10-22T07:30:28;13.88;;;2.13;;
28447;SDS011;15675;52.870;-1.416;2022-10-22T07:32:54;8.73;;;1.65;;
28447;SDS011;15675;52.870;-1.416;2022-10-22T07:35:19;16.17;;;2.92;;
28447;SDS011;15675;52.870;-1.416;2022-10-22T07:37:45;8.07;;;2.10;;
28447;SDS011;15675;52.870;-1.416;2022-10-22T07:40:11;15.75;;;2.55;;
28447;SDS011;15675;52.870;-1.416;2022-10-22T07:42:37;14.45;;;1.98;;
28447;SDS011;15675;52.870;-1.416;2022-10-22T07:45:03;17.85;;;2.10;;
28447;SDS011;15675;52.870;-1.416;2022-10-22T07:47:28;18.25;;;2.90;;
28447;SDS011;15675;52.870;-1.416;2022-10-22T07:49:54;16.80;;;3.30;;
28447;SDS011;15675;52.870;-1.416;2022-10-22T07:52:19;10.55;;;1.92;;
28447;SDS011;15675;52.870;-1.416;2022-10-22T07:54:45;13.02;;;2.08;;
28447;SDS011;15675;52.870;-1.416;2022-10-22T07:57:10;22.45;;;2.60;;
28447;SDS011;15675;52.870;-1.416;2022-10-22T07:59:36;15.38;;;2.30;;
28447;SDS011;15675;52.870;-1.416;2022-10-22T08:02:01;14.80;;;2.63;;
28447;SDS011;15675;52.870;-1.416;2022-10-22T08:04:27;13.10;;;2.33;;
28447;SDS011;15675;52.870;-1.416;2022-10-22T08:06:52;20.27;;;2.35;;
28447;SDS011;15675;52.870;-1.416;2022-10-22T08:09:17;7.95;;;1.80;;
28447;SDS011;15675;52.870;-1.416;2022-10-22T08:11:43;16.50;;;2.47;;
28447;SDS011;15675;52.870;-1.416;2022-10-22T08:14:09;17.88;;;2.72;;
28447;SDS011;15675;52.870;-1.416;2022-10-22T08:16:35;13.98;;;2.28;;
28447;SDS011;15675;52.870;-1.416;2022-10-22T08:19:00;21.35;;;2.85;;
28447;SDS011;15675;52.870;-1.416;2022-10-22T08:21:26;22.65;;;3.20;;
28447;SDS011;15675;52.870;-1.416;2022-10-22T08:23:51;22.92;;;2.85;;
28447;SDS011;15675;52.870;-1.416;2022-10-22T08:26:17;23.52;;;3.03;;
28447;SDS011;15675;52.870;-1.416;2022-10-22T08:28:42;19.15;;;2.83;;
28447;SDS011;15675;52.870;-1.416;2022-10-22T08:31:08;12.82;;;2.28;;
28447;SDS011;15675;52.870;-1.416;2022-10-22T08:33:35;19.00;;;2.75;;
28447;SDS011;15675;52.870;-1.416;2022-10-22T08:36:00;19.83;;;3.03;;
28447;SDS011;15675;52.870;-1.416;2022-10-22T08:38:26;23.80;;;3.47;;
28447;SDS011;15675;52.870;-1.416;2022-10-22T08:40:52;27.13;;;2.55;;
28447;SDS011;15675;52.870;-1.416;2022-10-22T08:46:20;19.88;;;3.42;;
28447;SDS011;15675;52.870;-1.416;2022-10-22T08:48:53;18.85;;;2.42;;
28447;SDS011;15675;52.870;-1.416;2022-10-22T08:51:22;28.50;;;3.25;;
28447;SDS011;15675;52.870;-1.416;2022-10-22T08:59:56;18.25;;;3.00;;
28447;SDS011;15675;52.870;-1.416;2022-10-22T09:08:00;21.13;;;2.92;;
28447;SDS011;15675;52.870;-1.416;2022-10-22T09:10:28;15.45;;;2.08;;
28447;SDS011;15675;52.870;-1.416;2022-10-22T09:12:59;24.02;;;2.35;;
28447;SDS011;15675;52.870;-1.416;2022-10-22T09:15:25;13.15;;;3.42;;
28447;SDS011;15675;52.870;-1.416;2022-10-22T09:20:23;17.55;;;2.33;;
28447;SDS011;15675;52.870;-1.416;2022-10-22T09:25:40;14.52;;;2.60;;
28447;SDS011;15675;52.870;-1.416;2022-10-22T09:28:07;12.88;;;2.17;;
28447;SDS011;15675;52.870;-1.416;2022-10-22T09:30:34;12.88;;;2.15;;
28447;SDS011;15675;52.870;-1.416;2022-10-22T09:35:32;19.55;;;2.80;;
28447;SDS011;15675;52.870;-1.416;2022-10-22T09:38:01;16.27;;;2.83;;
28447;SDS011;15675;52.870;-1.416;2022-10-22T09:40:34;18.58;;;2.60;;
28447;SDS011;15675;52.870;-1.416;2022-10-22T09:43:08;12.07;;;2.33;;
28447;SDS011;15675;52.870;-1.416;2022-10-22T09:45:37;17.42;;;2.15;;
28447;SDS011;15675;52.870;-1.416;2022-10-22T09:48:08;18.80;;;3.03;;
28447;SDS011;15675;52.870;-1.416;2022-10-22T09:50:38;17.02;;;2.85;;
28447;SDS011;15675;52.870;-1.416;2022-10-22T09:53:11;17.92;;;2.58;;
28447;SDS011;15675;52.870;-1.416;2022-10-22T09:55:53;21.55;;;3.58;;
28447;SDS011;15675;52.870;-1.416;2022-10-22T09:58:20;10.77;;;2.38;;
28447;SDS011;15675;52.870;-1.416;2022-10-22T10:00:49;17.35;;;3.00;;
28447;SDS011;15675;52.870;-1.416;2022-10-22T10:03:18;14.75;;;3.42;;
28447;SDS011;15675;52.870;-1.416;2022-10-22T10:05:51;20.05;;;3.15;;
28447;SDS011;15675;52.870;-1.416;2022-10-22T10:08:18;13.27;;;2.92;;
28447;SDS011;15675;52.870;-1.416;2022-10-22T10:10:47;10.23;;;2.83;;
28447;SDS011;15675;52.870;-1.416;2022-10-22T10:18:32;17.27;;;2.65;;
28447;SDS011;15675;52.870;-1.416;2022-10-22T10:23:57;17.60;;;3.08;;
28447;SDS011;15675;52.870;-1.416;2022-10-22T10:32:42;15.43;;;2.65;;
28447;SDS011;15675;52.870;-1.416;2022-10-22T10:35:34;15.02;;;2.45;;
28447;SDS011;15675;52.870;-1.416;2022-10-22T10:43:16;13.18;;;3.03;;
28447;SDS011;15675;52.870;-1.416;2022-10-22T10:45:57;23.05;;;2.80;;
28447;SDS011;15675;52.870;-1.416;2022-10-22T10:56:52;16.45;;;2.60;;
28447;SDS011;15675;52.870;-1.416;2022-10-22T10:59:26;18.42;;;2.78;;
28447;SDS011;15675;52.870;-1.416;2022-10-22T11:07:44;15.50;;;1.92;;
28447;SDS011;15675;52.870;-1.416;2022-10-22T11:13:09;13.60;;;2.13;;
28447;SDS011;15675;52.870;-1.416;2022-10-22T11:15:41;12.73;;;1.85;;
28447;SDS011;15675;52.870;-1.416;2022-10-22T11:23:31;11.02;;;1.98;;
28447;SDS011;15675;52.870;-1.416;2022-10-22T11:28:34;11.30;;;1.50;;
28447;SDS011;15675;52.870;-1.416;2022-10-22T11:31:09;11.95;;;1.90;;
28447;SDS011;15675;52.870;-1.416;2022-10-22T11:34:23;13.98;;;2.00;;
28447;SDS011;15675;52.870;-1.416;2022-10-22T11:36:39;8.55;;;1.80;;
28447;SDS011;15675;52.870;-1.416;2022-10-22T11:39:13;11.00;;;2.45;;
28447;SDS011;15675;52.870;-1.416;2022-10-22T11:41:57;13.98;;;1.50;;
28447;SDS011;15675;52.870;-1.416;2022-10-22T11:44:23;14.80;;;2.80;;
28447;SDS011;15675;52.870;-1.416;2022-10-22T11:46:53;13.98;;;2.38;;
28447;SDS011;15675;52.870;-1.416;2022-10-22T11:49:42;10.23;;;1.90;;
28447;SDS011;15675;52.870;-1.416;2022-10-22T11:52:36;13.55;;;2.17;;
28447;SDS011;15675;52.870;-1.416;2022-10-22T11:55:26;10.05;;;2.00;;
28447;SDS011;15675;52.870;-1.416;2022-10-22T11:57:55;11.32;;;2.30;;
28447;SDS011;15675;52.870;-1.416;2022-10-22T12:00:40;11.10;;;2.15;;
28447;SDS011;15675;52.870;-1.416;2022-10-22T12:03:20;14.32;;;2.67;;
28447;SDS011;15675;52.870;-1.416;2022-10-22T12:11:15;11.02;;;1.95;;
28447;SDS011;15675;52.870;-1.416;2022-10-22T12:16:50;12.65;;;1.92;;
28447;SDS011;15675;52.870;-1.416;2022-10-22T12:21:48;10.10;;;1.83;;
28447;SDS011;15675;52.870;-1.416;2022-10-22T12:24:18;9.15;;;2.05;;
28447;SDS011;15675;52.870;-1.416;2022-10-22T12:26:46;11.07;;;1.73;;
28447;SDS011;15675;52.870;-1.416;2022-10-22T12:29:15;6.03;;;2.42;;
28447;SDS011;15675;52.870;-1.416;2022-10-22T12:31:41;11.48;;;1.63;;
28447;SDS011;15675;52.870;-1.416;2022-10-22T12:34:12;8.32;;;1.73;;
28447;SDS011;15675;52.870;-1.416;2022-10-22T12:36:40;8.65;;;1.63;;
28447;SDS011;15675;52.870;-1.416;2022-10-22T12:39:11;6.32;;;1.80;;
28447;SDS011;15675;52.870;-1.416;2022-10-22T12:41:39;7.57;;;1.42;;
28447;SDS011;15675;52.870;-1.416;2022-10-22T12:44:05;13.98;;;2.08;;
28447;SDS011;15675;52.870;-1.416;2022-10-22T12:46:32;7.32;;;1.50;;
28447;SDS011;15675;52.870;-1.416;2022-10-22T12:49:00;13.65;;;1.70;;
28447;SDS011;15675;52.870;-1.416;2022-10-22T12:51:29;8.88;;;1.35;;
28447;SDS011;15675;52.870;-1.416;2022-10-22T12:53:55;7.95;;;1.40;;
28447;SDS011;15675;52.870;-1.416;2022-10-22T12:56:30;12.68;;;1.58;;
28447;SDS011;15675;52.870;-1.416;2022-10-22T12:59:00;8.30;;;1.30;;
28447;SDS011;15675;52.870;-1.416;2022-10-22T13:01:28;5.15;;;1.25;;
28447;SDS011;15675;52.870;-1.416;2022-10-22T13:04:34;7.88;;;1.67;;
28447;SDS011;15675;52.870;-1.416;2022-10-22T13:07:12;9.45;;;1.50;;
28447;SDS011;15675;52.870;-1.416;2022-10-22T13:09:59;8.25;;;1.98;;
28447;SDS011;15675;52.870;-1.416;2022-10-22T13:12:26;6.88;;;1.08;;
28447;SDS011;15675;52.870;-1.416;2022-10-22T13:15:16;8.13;;;1.27;;
28447;SDS011;15675;52.870;-1.416;2022-10-22T13:20:48;9.70;;;1.60;;
28447;SDS011;15675;52.870;-1.416;2022-10-22T13:23:16;6.90;;;1.40;;
28447;SDS011;15675;52.870;-1.416;2022-10-22T13:25:54;7.05;;;1.10;;
28447;SDS011;15675;52.870;-1.416;2022-10-22T13:28:25;9.98;;;1.83;;
28447;SDS011;15675;52.870;-1.416;2022-10-22T13:30:55;7.70;;;1.55;;
28447;SDS011;15675;52.870;-1.416;2022-10-22T13:33:24;11.60;;;1.98;;
28447;SDS011;15675;52.870;-1.416;2022-10-22T13:35:54;6.63;;;1.17;;
28447;SDS011;15675;52.870;-1.416;2022-10-22T13:38:21;7.57;;;1.35;;
28447;SDS011;15675;52.870;-1.416;2022-10-22T13:40:49;10.13;;;1.45;;
28447;SDS011;15675;52.870;-1.416;2022-10-22T13:43:14;10.70;;;1.60;;
28447;SDS011;15675;52.870;-1.416;2022-10-22T13:45:41;8.85;;;1.13;;
28447;SDS011;15675;52.870;-1.416;2022-10-22T13:48:11;11.25;;;1.98;;
28447;SDS011;15675;52.870;-1.416;2022-10-22T13:50:39;10.27;;;1.40;;
28447;SDS011;15675;52.870;-1.416;2022-10-22T13:53:05;10.00;;;1.60;;
28447;SDS011;15675;52.870;-1.416;2022-10-22T13:55:34;8.95;;;1.38;;
28447;SDS011;15675;52.870;-1.416;2022-10-22T13:58:09;12.13;;;1.40;;
28447;SDS011;15675;52.870;-1.416;2022-10-22T14:00:40;11.20;;;1.77;;
28447;SDS011;15675;52.870;-1.416;2022-10-22T14:03:11;6.05;;;1.60;;
28447;SDS011;15675;52.870;-1.416;2022-10-22T14:05:40;7.20;;;1.92;;
28447;SDS011;15675;52.870;-1.416;2022-10-22T14:08:13;11.13;;;1.38;;
28447;SDS011;15675;52.870;-1.416;2022-10-22T14:10:40;11.82;;;2.30;;
28447;SDS011;15675;52.870;-1.416;2022-10-22T14:13:12;8.93;;;1.55;;
28447;SDS011;15675;52.870;-1.416;2022-10-22T14:15:39;10.57;;;2.05;;
28447;SDS011;15675;52.870;-1.416;2022-10-22T14:18:06;5.65;;;1.15;;
28447;SDS011;15675;52.870;-1.416;2022-10-22T14:20:34;10.05;;;1.45;;
28447;SDS011;15675;52.870;-1.416;2022-10-22T14:23:15;16.15;;;2.53;;
28447;SDS011;15675;52.870;-1.416;2022-10-22T14:25:44;7.57;;;1.70;;
28447;SDS011;15675;52.870;-1.416;2022-10-22T14:28:10;9.25;;;1.92;;
28447;SDS011;15675;52.870;-1.416;2022-10-22T14:30:37;10.38;;;1.60;;
28447;SDS011;15675;52.870;-1.416;2022-10-22T14:33:08;13.23;;;1.67;;
28447;SDS011;15675;52.870;-1.416;2022-10-22T14:35:44;14.20;;;2.85;;
28447;SDS011;15675;52.870;-1.416;2022-10-22T14:38:11;13.60;;;1.48;;
28447;SDS011;15675;52.870;-1.416;2022-10-22T14:40:37;9.73;;;1.85;;
28447;SDS011;15675;52.870;-1.416;2022-10-22T14:43:04;8.80;;;1.63;;
28447;SDS011;15675;52.870;-1.416;2022-10-22T14:45:30;8.27;;;1.40;;
28447;SDS011;15675;52.870;-1.416;2022-10-22T14:47:55;9.50;;;1.45;;
28447;SDS011;15675;52.870;-1.416;2022-10-22T14:50:22;6.63;;;1.60;;
28447;SDS011;15675;52.870;-1.416;2022-10-22T14:52:48;9.13;;;2.10;;
28447;SDS011;15675;52.870;-1.416;2022-10-22T14:55:15;9.23;;;1.30;;
28447;SDS011;15675;52.870;-1.416;2022-10-22T14:57:42;10.75;;;2.67;;
28447;SDS011;15675;52.870;-1.416;2022-10-22T15:00:12;10.93;;;1.55;;
28447;SDS011;15675;52.870;-1.416;2022-10-22T15:05:07;6.28;;;1.77;;
28447;SDS011;15675;52.870;-1.416;2022-10-22T15:07:33;6.30;;;1.52;;
28447;SDS011;15675;52.870;-1.416;2022-10-22T15:09:58;8.05;;;1.63;;
28447;SDS011;15675;52.870;-1.416;2022-10-22T15:12:24;13.18;;;1.80;;
28447;SDS011;15675;52.870;-1.416;2022-10-22T15:14:50;16.98;;;2.03;;
28447;SDS011;15675;52.870;-1.416;2022-10-22T15:17:16;15.23;;;2.28;;
28447;SDS011;15675;52.870;-1.416;2022-10-22T15:19:42;9.32;;;1.70;;
28447;SDS011;15675;52.870;-1.416;2022-10-22T15:22:08;9.30;;;1.60;;
28447;SDS011;15675;52.870;-1.416;2022-10-22T15:24:35;14.18;;;1.38;;
28447;SDS011;15675;52.870;-1.416;2022-10-22T15:27:00;8.77;;;2.20;;
28447;SDS011;15675;52.870;-1.416;2022-10-22T15:29:27;11.65;;;1.67;;
28447;SDS011;15675;52.870;-1.416;2022-10-22T15:31:57;9.88;;;1.70;;
28447;SDS011;15675;52.870;-1.416;2022-10-22T15:34:24;12.20;;;2.20;;
28447;SDS011;15675;52.870;-1.416;2022-10-22T15:37:09;10.88;;;1.75;;
28447;SDS011;15675;52.870;-1.416;2022-10-22T15:39:39;12.80;;;2.10;;
28447;SDS011;15675;52.870;-1.416;2022-10-22T15:42:06;16.20;;;2.40;;
28447;SDS011;15675;52.870;-1.416;2022-10-22T15:44:33;12.93;;;1.88;;
28447;SDS011;15675;52.870;-1.416;2022-10-22T15:47:01;11.55;;;1.98;;
28447;SDS011;15675;52.870;-1.416;2022-10-22T15:49:27;11.70;;;1.83;;
28447;SDS011;15675;52.870;-1.416;2022-10-22T15:51:53;16.65;;;2.95;;
28447;SDS011;15675;52.870;-1.416;2022-10-22T15:54:22;13.98;;;2.40;;
28447;SDS011;15675;52.870;-1.416;2022-10-22T15:56:49;15.75;;;2.00;;
28447;SDS011;15675;52.870;-1.416;2022-10-22T15:59:15;10.88;;;1.88;;
28447;SDS011;15675;52.870;-1.416;2022-10-22T16:01:41;10.63;;;1.70;;
28447;SDS011;15675;52.870;-1.416;2022-10-22T16:04:08;19.40;;;2.25;;
28447;SDS011;15675;52.870;-1.416;2022-10-22T16:06:36;12.02;;;1.83;;
28447;SDS011;15675;52.870;-1.416;2022-10-22T16:09:03;15.95;;;2.28;;
28447;SDS011;15675;52.870;-1.416;2022-10-22T16:11:30;15.30;;;3.22;;
28447;SDS011;15675;52.870;-1.416;2022-10-22T16:13:56;16.33;;;2.53;;
28447;SDS011;15675;52.870;-1.416;2022-10-22T16:16:24;18.17;;;2.65;;
28447;SDS011;15675;52.870;-1.416;2022-10-22T16:18:54;9.88;;;1.83;;
28447;SDS011;15675;52.870;-1.416;2022-10-22T16:21:20;10.57;;;2.45;;
28447;SDS011;15675;52.870;-1.416;2022-10-22T16:23:47;18.90;;;2.22;;
28447;SDS011;15675;52.870;-1.416;2022-10-22T16:26:12;10.77;;;2.05;;
28447;SDS011;15675;52.870;-1.416;2022-10-22T16:28:39;16.13;;;1.98;;
28447;SDS011;15675;52.870;-1.416;2022-10-22T16:31:06;12.52;;;2.42;;
28447;SDS011;15675;52.870;-1.416;2022-10-22T16:33:33;14.32;;;2.60;;